createdAt,value
2019-03-09T00:00:36.289Z,3.60
2019-03-09T00:03:03.006Z,2.90
2019-03-09T00:05:29.726Z,3.20
2019-03-09T00:07:56.428Z,2.50
2019-03-09T00:10:23.177Z,2.53
2019-03-09T00:12:49.821Z,2.30
2019-03-09T00:15:16.619Z,2.93
2019-03-09T00:17:43.448Z,3.40
2019-03-09T00:20:10.140Z,2.87
2019-03-09T00:22:36.935Z,2.83
2019-03-09T00:25:06.171Z,3.47
2019-03-09T00:27:34.748Z,2.93
2019-03-09T00:30:03.335Z,2.60
2019-03-09T00:32:30.051Z,3.10
2019-03-09T00:34:56.975Z,2.97
2019-03-09T00:37:23.712Z,2.80
2019-03-09T00:39:50.405Z,2.70
2019-03-09T00:42:17.048Z,2.60
2019-03-09T00:44:44.045Z,2.33
2019-03-09T00:47:10.724Z,2.70
2019-03-09T00:49:37.403Z,3.17
2019-03-09T00:52:04.032Z,2.37
2019-03-09T00:54:30.792Z,2.80
2019-03-09T00:56:59.854Z,2.10
2019-03-09T00:59:26.556Z,2.50
2019-03-09T01:01:53.202Z,2.37
2019-03-09T01:04:19.885Z,2.30
2019-03-09T01:06:46.513Z,2.13
2019-03-09T01:09:13.221Z,2.10
2019-03-09T01:11:39.856Z,2.50
2019-03-09T01:14:06.524Z,1.70
2019-03-09T01:16:33.227Z,2.20
2019-03-09T01:19:00.057Z,1.67
2019-03-09T01:21:26.877Z,2.50
2019-03-09T01:23:53.549Z,2.67
2019-03-09T01:26:20.342Z,2.47
2019-03-09T01:28:47.094Z,2.63
2019-03-09T01:31:14.245Z,2.00
2019-03-09T01:33:40.969Z,2.00
2019-03-09T01:36:07.669Z,2.03
2019-03-09T01:38:34.307Z,1.70
2019-03-09T01:41:00.989Z,2.17
2019-03-09T01:43:27.636Z,1.60
2019-03-09T01:45:54.316Z,1.80
2019-03-09T01:48:20.961Z,1.53
2019-03-09T01:50:47.605Z,2.17
2019-03-09T01:53:14.295Z,2.20
2019-03-09T01:55:40.937Z,2.20
2019-03-09T01:58:07.640Z,1.80
2019-03-09T02:00:34.611Z,1.97
2019-03-09T02:03:01.271Z,1.40
2019-03-09T02:05:27.908Z,1.70
2019-03-09T02:07:54.728Z,1.97
2019-03-09T02:10:21.340Z,1.63
2019-03-09T02:12:48.026Z,2.00
2019-03-09T02:15:15.317Z,2.30
2019-03-09T02:17:42.208Z,1.73
2019-03-09T02:20:11.463Z,2.10
2019-03-09T02:25:34.321Z,1.90
2019-03-09T02:28:00.984Z,1.93
2019-03-09T02:30:27.924Z,1.30
2019-03-09T02:32:54.649Z,1.93
2019-03-09T02:35:21.351Z,2.60
2019-03-09T02:37:47.990Z,1.70
2019-03-09T02:40:23.246Z,1.80
2019-03-09T02:42:50.112Z,1.77
2019-03-09T02:45:18.671Z,2.00
2019-03-09T02:47:45.369Z,2.07
2019-03-09T02:50:13.714Z,1.07
2019-03-09T02:52:40.485Z,1.40
2019-03-09T02:55:08.541Z,1.03
2019-03-09T02:57:35.313Z,1.57
2019-03-09T03:00:02.353Z,1.77
2019-03-09T03:02:30.957Z,1.50
2019-03-09T03:04:57.701Z,1.77
2019-03-09T03:07:24.457Z,2.20
2019-03-09T03:09:51.219Z,1.87
2019-03-09T03:12:18.077Z,1.70
2019-03-09T03:14:44.765Z,1.40
2019-03-09T03:17:11.413Z,1.80
2019-03-09T03:19:38.090Z,1.80
2019-03-09T03:22:04.720Z,1.80
2019-03-09T03:24:31.868Z,2.17
2019-03-09T03:26:58.593Z,1.50
2019-03-09T03:29:25.328Z,1.37
2019-03-09T03:31:52.189Z,1.67
2019-03-09T03:34:18.954Z,1.03
2019-03-09T03:36:45.632Z,1.77
2019-03-09T03:39:12.454Z,1.30
2019-03-09T03:41:39.198Z,1.20
2019-03-09T03:44:05.858Z,1.40
2019-03-09T03:46:32.532Z,2.23
2019-03-09T03:48:59.189Z,1.50
2019-03-09T03:51:26.212Z,1.87
2019-03-09T03:53:52.962Z,1.00
2019-03-09T03:56:19.833Z,1.13
2019-03-09T03:58:46.512Z,1.40
2019-03-09T04:01:13.294Z,1.10
2019-03-09T04:03:39.981Z,1.50
2019-03-09T04:06:06.610Z,0.93
2019-03-09T04:08:33.403Z,1.50
2019-03-09T04:11:00.593Z,1.20
2019-03-09T04:13:27.424Z,0.70
2019-03-09T04:15:54.249Z,1.13
2019-03-09T04:18:20.912Z,0.90
2019-03-09T04:20:47.603Z,1.20
2019-03-09T04:23:14.247Z,1.40
2019-03-09T04:25:40.960Z,1.13
2019-03-09T04:28:07.655Z,1.13
2019-03-09T04:30:34.464Z,1.03
2019-03-09T04:33:01.148Z,1.30
2019-03-09T04:35:27.805Z,1.00
2019-03-09T04:37:54.498Z,1.83
2019-03-09T04:40:21.153Z,0.80
2019-03-09T04:42:47.854Z,0.80
2019-03-09T04:45:14.488Z,1.80
2019-03-09T04:47:41.174Z,1.07
2019-03-09T04:50:11.984Z,0.90
2019-03-09T04:52:38.627Z,1.20
2019-03-09T04:55:06.436Z,1.00
2019-03-09T04:57:33.127Z,1.13
2019-03-09T04:59:59.804Z,0.97
2019-03-09T05:02:26.508Z,1.17
2019-03-09T05:04:53.148Z,1.03
2019-03-09T05:07:23.262Z,0.80
2019-03-09T05:10:02.401Z,1.00
2019-03-09T05:12:30.588Z,0.73
2019-03-09T05:14:57.310Z,0.80
2019-03-09T05:17:23.950Z,0.80
2019-03-09T05:19:50.581Z,0.97
2019-03-09T05:22:17.284Z,0.73
2019-03-09T05:24:44.043Z,0.80
2019-03-09T05:27:10.856Z,0.80
2019-03-09T05:29:37.518Z,0.70
2019-03-09T05:32:04.729Z,0.77
2019-03-09T05:34:31.505Z,0.80
2019-03-09T05:36:58.260Z,0.77
2019-03-09T05:39:24.929Z,0.60
2019-03-09T05:41:51.931Z,0.70
2019-03-09T05:44:18.545Z,0.70
2019-03-09T05:46:45.188Z,0.70
2019-03-09T05:49:11.874Z,0.67
2019-03-09T05:51:38.508Z,0.60
2019-03-09T05:54:05.214Z,1.00
2019-03-09T05:56:31.878Z,0.40
2019-03-09T05:58:58.612Z,0.80
2019-03-09T06:01:25.413Z,0.60
2019-03-09T06:03:52.059Z,0.87
2019-03-09T06:06:18.860Z,0.60
2019-03-09T06:08:45.512Z,0.80
2019-03-09T06:11:12.272Z,0.70
2019-03-09T06:13:38.942Z,1.10
2019-03-09T06:16:05.635Z,0.70
2019-03-09T06:18:32.253Z,0.93
2019-03-09T06:20:58.893Z,0.70
2019-03-09T06:23:25.594Z,0.60
2019-03-09T06:25:52.294Z,0.73
2019-03-09T06:28:19.031Z,0.80
2019-03-09T06:30:45.827Z,0.60
2019-03-09T06:33:18.714Z,0.77
2019-03-09T06:35:54.413Z,0.73
2019-03-09T06:38:46.021Z,0.60
2019-03-09T06:41:31.600Z,0.60
2019-03-09T06:43:58.319Z,0.80
2019-03-09T06:46:25.049Z,0.50
2019-03-09T06:48:51.851Z,0.50
2019-03-09T06:51:18.494Z,0.50
2019-03-09T06:53:45.135Z,0.60
2019-03-09T06:56:11.825Z,0.50
2019-03-09T06:58:38.578Z,0.50
2019-03-09T07:01:19.309Z,0.50
2019-03-09T07:03:45.969Z,0.40
2019-03-09T07:06:12.756Z,0.37
2019-03-09T07:08:39.534Z,0.40
2019-03-09T07:11:06.281Z,0.40
2019-03-09T07:13:33.036Z,0.40
2019-03-09T07:15:59.830Z,0.40
2019-03-09T07:18:26.487Z,0.57
2019-03-09T07:20:53.170Z,0.40
2019-03-09T07:23:22.852Z,0.50
2019-03-09T07:25:49.664Z,0.40
2019-03-09T07:28:16.494Z,0.30
2019-03-09T07:30:43.445Z,0.30
2019-03-09T07:33:10.078Z,0.40
2019-03-09T07:35:36.785Z,0.40
2019-03-09T07:38:03.503Z,0.37
2019-03-09T07:40:30.361Z,0.50
2019-03-09T07:42:57.123Z,0.40
2019-03-09T07:45:23.890Z,0.47
2019-03-09T07:47:51.240Z,0.50
2019-03-09T07:50:18.702Z,0.47
2019-03-09T07:52:45.698Z,0.43
2019-03-09T07:55:14.017Z,0.40
2019-03-09T07:57:41.096Z,0.67
2019-03-09T08:00:16.157Z,0.87
2019-03-09T08:02:42.824Z,0.80
2019-03-09T08:05:09.813Z,0.80
2019-03-09T08:07:36.466Z,1.00
2019-03-09T08:10:12.703Z,0.60
2019-03-09T08:12:39.439Z,0.50
2019-03-09T08:15:08.929Z,0.70
2019-03-09T08:17:35.792Z,0.67
2019-03-09T08:20:03.681Z,0.90
2019-03-09T08:22:30.466Z,1.50
2019-03-09T08:24:57.138Z,1.40
2019-03-09T08:27:23.809Z,1.50
2019-03-09T08:29:50.672Z,0.90
2019-03-09T08:32:17.322Z,0.83
2019-03-09T08:34:44.100Z,1.30
2019-03-09T08:37:10.764Z,0.70
2019-03-09T08:39:37.440Z,0.90
2019-03-09T08:42:04.136Z,1.40
2019-03-09T08:44:30.945Z,1.00
2019-03-09T08:46:57.581Z,1.00
2019-03-09T08:49:24.297Z,1.17
2019-03-09T08:51:50.992Z,0.80
2019-03-09T08:54:17.817Z,1.00
2019-03-09T08:56:44.515Z,0.83
2019-03-09T08:59:11.887Z,0.60
2019-03-09T09:01:38.610Z,0.83
2019-03-09T09:04:05.277Z,1.20
2019-03-09T09:06:32.062Z,0.90
2019-03-09T09:08:58.724Z,1.00
2019-03-09T09:11:25.400Z,1.10
2019-03-09T09:13:52.040Z,1.07
2019-03-09T09:16:20.089Z,1.00
2019-03-09T09:18:46.990Z,0.73
2019-03-09T09:21:13.743Z,1.00
2019-03-09T09:23:40.552Z,1.73
2019-03-09T09:26:07.245Z,1.00
2019-03-09T09:28:34.016Z,1.10
2019-03-09T09:31:00.691Z,1.40
2019-03-09T09:33:27.369Z,0.80
2019-03-09T09:35:54.012Z,1.10
2019-03-09T09:38:20.708Z,1.10
2019-03-09T09:40:47.365Z,1.00
2019-03-09T09:43:14.058Z,1.00
2019-03-09T09:45:40.686Z,1.20
2019-03-09T09:48:07.494Z,1.30
2019-03-09T09:50:34.133Z,1.20
2019-03-09T09:53:00.817Z,1.90
2019-03-09T09:55:27.494Z,2.07
2019-03-09T09:57:54.233Z,2.10
2019-03-09T10:00:23.124Z,2.23
2019-03-09T10:02:49.864Z,2.27
2019-03-09T10:05:16.557Z,1.40
2019-03-09T10:07:43.513Z,1.50
2019-03-09T10:10:17.773Z,1.63
2019-03-09T10:12:44.435Z,1.90
2019-03-09T10:15:16.560Z,2.27
2019-03-09T10:17:43.261Z,1.83
2019-03-09T10:20:11.440Z,1.70
2019-03-09T10:22:38.150Z,2.00
2019-03-09T10:25:07.170Z,1.83
2019-03-09T10:27:33.874Z,1.77
2019-03-09T10:30:00.570Z,1.90
2019-03-09T10:32:27.345Z,1.90
2019-03-09T10:34:53.995Z,2.40
2019-03-09T10:37:21.245Z,1.70
2019-03-09T10:39:48.972Z,1.50
2019-03-09T10:42:15.605Z,1.30
2019-03-09T10:44:42.409Z,1.23
2019-03-09T10:47:09.092Z,1.50
2019-03-09T10:49:35.741Z,1.30
2019-03-09T10:52:02.408Z,1.50
2019-03-09T10:54:36.031Z,1.70
2019-03-09T10:56:57.632Z,1.83
2019-03-09T10:59:24.289Z,1.47
2019-03-09T11:01:50.951Z,1.13
2019-03-09T11:04:27.027Z,1.90
2019-03-09T11:06:46.253Z,1.43
2019-03-09T11:09:12.981Z,1.13
2019-03-09T11:11:39.760Z,1.83
2019-03-09T11:14:06.446Z,1.53
2019-03-09T11:16:33.100Z,1.40
2019-03-09T11:18:59.851Z,1.57
2019-03-09T11:21:26.444Z,1.50
2019-03-09T11:23:53.190Z,1.47
2019-03-09T11:26:20.004Z,1.20
2019-03-09T11:28:46.732Z,1.40
2019-03-09T11:31:13.425Z,1.10
2019-03-09T11:33:40.096Z,1.60
2019-03-09T11:36:06.746Z,1.10
2019-03-09T11:38:33.416Z,0.90
2019-03-09T11:41:00.921Z,1.20
2019-03-09T11:43:27.823Z,1.40
2019-03-09T11:45:54.888Z,1.07
2019-03-09T11:48:21.515Z,1.47
2019-03-09T11:50:48.201Z,1.03
2019-03-09T11:53:14.937Z,0.93
2019-03-09T11:55:41.753Z,2.53
2019-03-09T11:58:08.885Z,3.07
2019-03-09T12:00:37.470Z,0.87
2019-03-09T12:03:04.128Z,2.50
2019-03-09T12:05:30.809Z,2.50
2019-03-09T12:07:57.455Z,2.13
2019-03-09T12:10:24.147Z,1.10
2019-03-09T12:12:50.777Z,0.80
2019-03-09T12:15:17.653Z,2.10
2019-03-09T12:17:44.394Z,1.10
2019-03-09T12:20:13.437Z,2.40
2019-03-09T12:22:40.109Z,5.90
2019-03-09T12:25:09.172Z,1.33
2019-03-09T12:27:35.853Z,0.50
2019-03-09T12:30:04.193Z,1.00
2019-03-09T12:32:30.961Z,0.80
2019-03-09T12:34:57.694Z,1.10
2019-03-09T12:37:24.386Z,1.17
2019-03-09T12:39:51.024Z,0.80
2019-03-09T12:42:17.697Z,0.77
2019-03-09T12:44:44.332Z,0.87
2019-03-09T12:47:11.133Z,0.70
2019-03-09T12:49:37.841Z,0.77
2019-03-09T12:52:04.620Z,0.80
2019-03-09T12:54:31.278Z,0.70
2019-03-09T12:56:57.900Z,0.70
2019-03-09T12:59:24.590Z,0.80
2019-03-09T13:01:51.223Z,0.70
2019-03-09T13:04:17.888Z,0.70
2019-03-09T13:06:44.524Z,0.70
2019-03-09T13:09:11.205Z,1.00
2019-03-09T13:11:37.846Z,1.07
2019-03-09T13:14:04.521Z,0.50
2019-03-09T13:16:31.202Z,0.67
2019-03-09T13:18:57.842Z,0.50
2019-03-09T13:21:24.513Z,0.67
2019-03-09T13:23:51.181Z,0.60
2019-03-09T13:26:17.878Z,0.60
2019-03-09T13:28:44.540Z,0.70
2019-03-09T13:31:11.271Z,0.60
2019-03-09T13:33:38.024Z,0.50
2019-03-09T13:36:06.210Z,0.40
2019-03-09T13:38:32.898Z,0.40
2019-03-09T13:40:59.553Z,0.50
2019-03-09T13:43:26.235Z,0.80
2019-03-09T13:45:52.873Z,0.50
2019-03-09T13:48:19.543Z,0.47
2019-03-09T13:50:46.177Z,0.63
2019-03-09T13:53:12.842Z,0.50
2019-03-09T13:55:39.488Z,0.50
2019-03-09T13:58:06.165Z,0.50
2019-03-09T14:00:40.063Z,0.50
2019-03-09T14:03:03.072Z,0.70
2019-03-09T14:05:29.857Z,0.50
2019-03-09T14:07:56.555Z,0.50
2019-03-09T14:10:23.195Z,0.43
2019-03-09T14:12:49.877Z,0.60
2019-03-09T14:15:16.715Z,0.90
2019-03-09T14:17:43.609Z,0.67
2019-03-09T14:20:11.701Z,0.60
2019-03-09T14:22:40.250Z,0.60
2019-03-09T14:25:09.148Z,0.53
2019-03-09T14:27:35.813Z,0.50
2019-03-09T14:30:05.150Z,0.60
2019-03-09T14:32:31.937Z,0.50
2019-03-09T14:34:58.579Z,0.60
2019-03-09T14:37:25.249Z,0.80
2019-03-09T14:39:51.916Z,0.70
2019-03-09T14:42:18.557Z,0.53
2019-03-09T14:44:45.224Z,0.80
2019-03-09T14:47:11.861Z,0.70
2019-03-09T14:49:38.542Z,1.20
2019-03-09T14:52:05.286Z,1.20
2019-03-09T14:54:31.938Z,0.90
2019-03-09T14:56:58.616Z,1.37
2019-03-09T14:59:25.288Z,1.23
2019-03-09T15:01:51.974Z,1.03
2019-03-09T15:04:18.589Z,1.13
2019-03-09T15:06:45.288Z,0.90
2019-03-09T15:09:12.028Z,0.70
2019-03-09T15:11:38.729Z,0.80
2019-03-09T15:14:05.362Z,0.60
2019-03-09T15:16:32.064Z,0.90
2019-03-09T15:18:58.723Z,0.70
2019-03-09T15:21:25.399Z,0.70
2019-03-09T15:23:52.065Z,0.97
2019-03-09T15:26:18.714Z,0.60
2019-03-09T15:28:45.413Z,1.03
2019-03-09T15:31:12.090Z,0.70
2019-03-09T15:33:38.864Z,0.70
2019-03-09T15:36:05.513Z,0.70
2019-03-09T15:38:32.214Z,0.60
2019-03-09T15:40:58.892Z,0.70
2019-03-09T15:43:25.719Z,0.90
2019-03-09T15:45:52.409Z,0.97
2019-03-09T15:48:19.159Z,0.90
2019-03-09T15:50:45.855Z,0.60
2019-03-09T15:53:12.489Z,0.90
2019-03-09T15:55:39.170Z,0.80
2019-03-09T15:58:05.805Z,0.90
2019-03-09T16:00:32.501Z,1.10
2019-03-09T16:02:59.146Z,1.13
2019-03-09T16:05:25.858Z,0.70
2019-03-09T16:07:52.499Z,0.70
2019-03-09T16:10:22.203Z,0.60
2019-03-09T16:12:48.869Z,0.63
2019-03-09T16:15:16.095Z,0.80
2019-03-09T16:17:42.802Z,0.90
2019-03-09T16:20:14.709Z,0.73
2019-03-09T16:22:41.497Z,1.33
2019-03-09T16:25:08.362Z,1.17
2019-03-09T16:27:35.036Z,1.90
2019-03-09T16:30:01.883Z,2.37
2019-03-09T16:32:28.590Z,1.20
2019-03-09T16:34:55.239Z,1.57
2019-03-09T16:37:21.950Z,1.20
2019-03-09T16:39:48.600Z,1.20
2019-03-09T16:42:15.388Z,1.90
2019-03-09T16:44:42.045Z,1.40
2019-03-09T16:47:08.833Z,2.00
2019-03-09T16:49:35.481Z,1.53
2019-03-09T16:52:02.214Z,1.40
2019-03-09T16:54:28.888Z,1.47
2019-03-09T16:56:55.730Z,1.70
2019-03-09T16:59:22.365Z,0.53
2019-03-09T17:01:48.980Z,0.80
2019-03-09T17:04:15.836Z,0.80
2019-03-09T17:06:42.480Z,0.73
2019-03-09T17:09:09.369Z,0.70
2019-03-09T17:11:36.092Z,0.60
2019-03-09T17:14:02.773Z,1.17
2019-03-09T17:16:29.465Z,1.00
2019-03-09T17:18:56.106Z,1.10
2019-03-09T17:21:22.793Z,1.60
2019-03-09T17:23:49.478Z,1.70
2019-03-09T17:26:16.172Z,0.90
2019-03-09T17:28:43.043Z,1.10
2019-03-09T17:31:09.724Z,0.80
2019-03-09T17:33:36.361Z,1.23
2019-03-09T17:36:03.134Z,1.00
2019-03-09T17:38:29.805Z,0.90
2019-03-09T17:40:56.532Z,1.30
2019-03-09T17:43:23.198Z,1.17
2019-03-09T17:45:49.845Z,0.90
2019-03-09T17:48:16.482Z,0.70
2019-03-09T17:50:43.158Z,0.90
2019-03-09T17:53:09.792Z,0.90
2019-03-09T17:55:36.610Z,0.97
2019-03-09T17:58:03.290Z,0.70
2019-03-09T18:00:41.804Z,0.67
2019-03-09T18:03:00.509Z,0.80
2019-03-09T18:05:27.259Z,0.67
2019-03-09T18:07:54.462Z,0.80
2019-03-09T18:10:27.480Z,0.80
2019-03-09T18:12:54.180Z,0.73
2019-03-09T18:15:21.785Z,0.93
2019-03-09T18:17:48.497Z,0.80
2019-03-09T18:20:15.137Z,0.97
2019-03-09T18:22:41.804Z,1.27
2019-03-09T18:25:08.493Z,1.40
2019-03-09T18:27:35.225Z,1.50
2019-03-09T18:30:02.217Z,1.13
2019-03-09T18:32:28.904Z,1.07
2019-03-09T18:34:55.700Z,1.27
2019-03-09T18:37:22.357Z,1.60
2019-03-09T18:39:49.023Z,1.20
2019-03-09T18:42:15.805Z,1.00
2019-03-09T18:44:42.440Z,1.17
2019-03-09T18:47:09.253Z,1.30
2019-03-09T18:49:36.412Z,0.97
2019-03-09T18:52:02.984Z,1.60
2019-03-09T18:54:29.656Z,1.90
2019-03-09T18:56:56.350Z,1.33
2019-03-09T18:59:23.000Z,1.63
2019-03-09T19:01:49.704Z,1.50
2019-03-09T19:04:18.014Z,1.33
2019-03-09T19:06:48.814Z,1.53
2019-03-09T19:09:17.145Z,1.50
2019-03-09T19:11:44.394Z,1.63
2019-03-09T19:14:11.572Z,1.47
2019-03-09T19:16:38.411Z,1.67
2019-03-09T19:19:05.230Z,1.27
2019-03-09T19:21:31.935Z,1.53
2019-03-09T19:23:58.721Z,1.60
2019-03-09T19:26:25.497Z,1.43
2019-03-09T19:28:52.261Z,1.30
2019-03-09T19:31:19.108Z,5.13
2019-03-09T19:33:46.153Z,2.20
2019-03-09T19:36:13.023Z,2.43
2019-03-09T19:38:40.197Z,1.83
2019-03-09T19:41:06.897Z,2.03
2019-03-09T19:43:33.609Z,2.13
2019-03-09T19:46:00.290Z,1.53
2019-03-09T19:48:26.974Z,1.90
2019-03-09T19:50:53.605Z,1.20
2019-03-09T19:53:20.240Z,1.37
2019-03-09T19:55:46.912Z,1.70
2019-03-09T19:58:13.581Z,1.50
2019-03-09T20:00:40.268Z,1.97
2019-03-09T20:03:06.935Z,2.10
2019-03-09T20:05:33.618Z,1.83
2019-03-09T20:08:00.284Z,1.67
2019-03-09T20:10:27.017Z,2.07
2019-03-09T20:12:54.037Z,2.20
2019-03-09T20:15:20.979Z,2.17
2019-03-09T20:17:47.889Z,2.20
2019-03-09T20:20:15.548Z,1.97
2019-03-09T20:22:42.465Z,2.37
2019-03-09T20:25:09.374Z,2.40
2019-03-09T20:27:36.250Z,2.10
2019-03-09T20:30:11.796Z,1.97
2019-03-09T20:32:38.464Z,1.67
2019-03-09T20:35:06.909Z,1.80
2019-03-09T20:37:33.685Z,1.70
2019-03-09T20:40:00.411Z,1.73
2019-03-09T20:42:27.092Z,1.63
2019-03-09T20:44:53.789Z,1.60
2019-03-09T20:47:20.715Z,1.70
2019-03-09T20:49:47.364Z,2.40
2019-03-09T20:52:14.442Z,2.50
2019-03-09T20:54:41.377Z,2.80
2019-03-09T20:57:08.495Z,2.40
2019-03-09T20:59:35.156Z,2.50
2019-03-09T21:02:02.181Z,1.70
2019-03-09T21:04:28.779Z,3.80
2019-03-09T21:06:55.561Z,2.20
2019-03-09T21:09:22.201Z,3.13
2019-03-09T21:11:48.879Z,2.57
2019-03-09T21:14:15.561Z,2.83
2019-03-09T21:16:42.194Z,3.17
2019-03-09T21:19:08.876Z,3.20
2019-03-09T21:21:35.669Z,2.20
2019-03-09T21:24:02.536Z,1.87
2019-03-09T21:26:29.440Z,2.27
2019-03-09T21:28:56.117Z,1.57
2019-03-09T21:31:22.937Z,2.20
2019-03-09T21:33:49.606Z,1.97
2019-03-09T21:36:16.947Z,1.90
2019-03-09T21:38:43.520Z,1.47
2019-03-09T21:41:10.335Z,2.03
2019-03-09T21:43:37.029Z,1.30
2019-03-09T21:46:03.713Z,2.03
2019-03-09T21:48:30.466Z,1.33
2019-03-09T21:50:57.245Z,1.50
2019-03-09T21:53:23.897Z,1.37
2019-03-09T21:55:50.597Z,1.10
2019-03-09T21:58:17.250Z,1.90
2019-03-09T22:00:43.906Z,1.63
2019-03-09T22:03:10.780Z,1.40
2019-03-09T22:05:37.448Z,1.53
2019-03-09T22:08:04.125Z,1.80
2019-03-09T22:10:30.767Z,1.60
2019-03-09T22:12:57.445Z,1.50
2019-03-09T22:15:24.078Z,2.50
2019-03-09T22:17:50.771Z,1.73
2019-03-09T22:20:17.620Z,2.30
2019-03-09T22:22:44.316Z,2.40
2019-03-09T22:25:14.753Z,2.40
2019-03-09T22:27:41.506Z,2.53
2019-03-09T22:30:21.481Z,2.60
2019-03-09T22:32:48.173Z,2.60
2019-03-09T22:35:14.867Z,2.97
2019-03-09T22:37:41.559Z,2.90
2019-03-09T22:40:14.053Z,2.83
2019-03-09T22:42:40.760Z,2.50
2019-03-09T22:45:09.838Z,3.40
2019-03-09T22:47:36.477Z,3.47
2019-03-09T22:50:08.505Z,3.13
2019-03-09T22:52:35.178Z,3.63
2019-03-09T22:55:01.839Z,2.40
2019-03-09T22:57:28.509Z,2.87
2019-03-09T22:59:55.187Z,3.40
2019-03-09T23:02:21.869Z,3.30
2019-03-09T23:04:48.621Z,3.50
2019-03-09T23:07:15.338Z,3.73
2019-03-09T23:09:42.105Z,3.33
2019-03-09T23:12:08.798Z,3.53
2019-03-09T23:14:35.432Z,3.43
2019-03-09T23:17:02.117Z,3.57
2019-03-09T23:19:28.805Z,3.10
2019-03-09T23:21:55.593Z,3.00
2019-03-09T23:24:22.277Z,3.73
2019-03-09T23:26:48.963Z,3.17
2019-03-09T23:29:15.603Z,3.07
2019-03-09T23:31:42.370Z,2.40
2019-03-09T23:34:09.041Z,2.50
2019-03-09T23:36:35.798Z,2.10
2019-03-09T23:39:05.897Z,2.27
2019-03-09T23:41:32.597Z,1.80
2019-03-09T23:43:59.380Z,2.17
2019-03-09T23:46:26.012Z,1.93
2019-03-09T23:48:52.917Z,2.40
2019-03-09T23:51:19.697Z,1.73
2019-03-09T23:53:46.324Z,2.07
2019-03-09T23:56:13.768Z,2.90
2019-03-09T23:58:40.735Z,3.30
